createdAt,value
2022-12-01T00:00:14.193Z,1.61
2022-12-01T00:05:11.702Z,1.63
2022-12-01T00:10:21.314Z,1.61
2022-12-01T00:15:12.464Z,1.60
2022-12-01T00:20:12.308Z,1.67
2022-12-01T00:25:12.979Z,1.68
2022-12-01T00:30:12.654Z,1.67
2022-12-01T00:35:12.935Z,1.73
2022-12-01T00:40:12.224Z,1.73
2022-12-01T00:45:12.831Z,1.71
2022-12-01T00:50:11.526Z,1.72
2022-12-01T00:55:11.519Z,1.77
2022-12-01T01:00:13.041Z,1.80
2022-12-01T01:05:11.629Z,1.85
2022-12-01T01:10:11.711Z,1.73
2022-12-01T01:15:12.031Z,1.71
2022-12-01T01:20:11.908Z,1.73
2022-12-01T01:25:11.431Z,1.70
2022-12-01T01:30:12.819Z,1.69
2022-12-01T01:35:11.693Z,1.73
2022-12-01T01:40:12.108Z,1.67
2022-12-01T01:45:20.394Z,1.69
2022-12-01T01:50:13.931Z,1.66
2022-12-01T01:55:13.259Z,1.61
2022-12-01T02:00:15.009Z,1.63
2022-12-01T02:05:15.675Z,1.61
2022-12-01T02:10:13.839Z,1.60
2022-12-01T02:15:24.346Z,1.56
2022-12-01T02:20:31.363Z,1.60
2022-12-01T02:25:18.586Z,1.58
2022-12-01T02:30:14.088Z,1.51
2022-12-01T02:35:15.701Z,1.49
2022-12-01T02:40:15.569Z,1.46
2022-12-01T02:45:17.938Z,1.43
2022-12-01T02:50:12.640Z,1.44
2022-12-01T02:55:12.270Z,1.44
2022-12-01T03:00:14.417Z,1.47
2022-12-01T03:05:20.549Z,1.44
2022-12-01T03:10:19.214Z,1.39
2022-12-01T03:15:23.089Z,1.40
2022-12-01T03:20:18.503Z,1.43
2022-12-01T03:25:13.297Z,1.43
2022-12-01T03:30:13.282Z,1.36
2022-12-01T03:35:15.456Z,1.44
2022-12-01T03:40:16.947Z,1.35
2022-12-01T03:45:17.452Z,1.35
2022-12-01T03:50:13.119Z,1.35
2022-12-01T03:55:18.538Z,1.32
2022-12-01T04:00:13.685Z,1.33
2022-12-01T04:05:11.605Z,1.34
2022-12-01T04:10:11.322Z,1.35
2022-12-01T04:15:13.488Z,1.34
2022-12-01T04:20:13.454Z,1.30
2022-12-01T04:25:11.587Z,1.34
2022-12-01T04:30:12.546Z,1.34
2022-12-01T04:35:12.005Z,1.27
2022-12-01T04:40:11.662Z,1.29
2022-12-01T04:45:11.584Z,1.26
2022-12-01T04:50:11.259Z,1.25
2022-12-01T04:55:11.888Z,1.28
2022-12-01T05:00:12.444Z,1.26
2022-12-01T05:05:13.023Z,1.23
2022-12-01T05:10:13.118Z,1.24
2022-12-01T05:15:12.631Z,1.21
2022-12-01T05:20:28.217Z,1.18
2022-12-01T05:25:11.202Z,1.26
2022-12-01T05:30:11.801Z,1.24
2022-12-01T05:35:11.890Z,1.19
2022-12-01T05:40:11.846Z,1.20
2022-12-01T05:45:12.112Z,1.27
2022-12-01T05:50:11.223Z,1.24
2022-12-01T05:55:11.298Z,1.17
2022-12-01T06:00:13.391Z,1.19
2022-12-01T06:05:11.201Z,1.18
2022-12-01T06:10:11.981Z,1.25
2022-12-01T06:15:12.370Z,1.29
2022-12-01T06:20:11.936Z,1.30
2022-12-01T06:25:14.003Z,1.26
2022-12-01T06:30:11.682Z,1.29
2022-12-01T06:35:11.809Z,1.23
2022-12-01T06:40:11.951Z,1.25
2022-12-01T06:45:11.520Z,1.28
2022-12-01T06:50:11.498Z,1.31
2022-12-01T06:55:11.617Z,1.30
2022-12-01T07:00:12.767Z,1.29
2022-12-01T07:05:11.199Z,1.31
2022-12-01T07:10:13.188Z,1.35
2022-12-01T07:15:11.147Z,1.40
2022-12-01T07:20:11.627Z,1.41
2022-12-01T07:25:11.581Z,1.40
2022-12-01T07:30:11.751Z,1.41
2022-12-01T07:35:11.105Z,1.40
2022-12-01T07:40:12.160Z,1.38
2022-12-01T07:45:11.205Z,1.40
2022-12-01T07:50:11.234Z,1.41
2022-12-01T07:55:11.468Z,1.37
2022-12-01T08:00:12.133Z,1.38
2022-12-01T08:05:11.294Z,1.41
2022-12-01T08:10:12.103Z,1.48
2022-12-01T08:15:11.121Z,1.55
2022-12-01T08:20:11.733Z,1.59
2022-12-01T08:25:12.089Z,1.58
2022-12-01T08:30:11.780Z,1.62
2022-12-01T08:35:11.164Z,1.61
2022-12-01T08:40:12.006Z,1.54
2022-12-01T08:45:11.381Z,1.48
2022-12-01T08:50:11.647Z,1.44
2022-12-01T08:55:11.254Z,1.52
2022-12-01T09:00:11.721Z,1.45
2022-12-01T09:05:11.193Z,1.45
2022-12-01T09:10:11.545Z,1.52
2022-12-01T09:15:11.051Z,1.49
2022-12-01T09:20:11.732Z,1.44
2022-12-01T09:25:14.335Z,1.51
2022-12-01T09:30:11.664Z,1.45
2022-12-01T09:35:11.009Z,1.49
2022-12-01T09:40:14.623Z,1.42
2022-12-01T09:45:23.027Z,1.48
2022-12-01T09:50:14.490Z,1.54
2022-12-01T09:55:14.429Z,1.49
2022-12-01T10:00:15.505Z,1.55
2022-12-01T10:05:15.965Z,1.49
2022-12-01T10:10:14.609Z,1.46
2022-12-01T10:15:23.989Z,1.43
2022-12-01T10:20:17.817Z,1.44
2022-12-01T10:25:20.504Z,1.54
2022-12-01T10:30:14.555Z,1.60
2022-12-01T10:35:14.809Z,1.67
2022-12-01T10:40:13.614Z,1.72
2022-12-01T10:45:16.206Z,1.78
2022-12-01T10:50:25.256Z,1.82
2022-12-01T10:55:25.657Z,1.79
2022-12-01T11:00:43.281Z,1.78
2022-12-01T11:05:22.309Z,1.80
2022-12-01T11:10:15.455Z,1.91
2022-12-01T11:15:18.045Z,1.95
2022-12-01T11:20:26.950Z,1.88
2022-12-01T11:25:19.067Z,1.85
2022-12-01T11:30:22.348Z,1.87
2022-12-01T11:35:17.353Z,1.85
2022-12-01T11:40:18.059Z,1.81
2022-12-01T11:45:26.169Z,1.80
2022-12-01T11:50:22.884Z,1.78
2022-12-01T11:55:20.400Z,1.78
2022-12-01T12:00:14.445Z,1.75
2022-12-01T12:05:30.835Z,1.73
2022-12-01T12:10:29.254Z,1.65
2022-12-01T12:15:21.781Z,1.65
2022-12-01T12:20:28.678Z,1.61
2022-12-01T12:25:23.617Z,1.58
2022-12-01T12:30:20.434Z,1.54
2022-12-01T12:35:25.250Z,1.53
2022-12-01T12:40:29.393Z,1.45
2022-12-01T12:45:20.313Z,1.41
2022-12-01T12:50:18.583Z,1.35
2022-12-01T12:55:14.733Z,1.30
2022-12-01T13:00:15.206Z,1.32
2022-12-01T13:05:19.977Z,1.32
2022-12-01T13:10:21.864Z,1.28
2022-12-01T13:15:16.063Z,1.25
2022-12-01T13:20:14.376Z,1.26
2022-12-01T13:25:12.654Z,1.22
2022-12-01T13:30:20.992Z,1.22
2022-12-01T13:35:24.133Z,1.08
2022-12-01T13:40:19.991Z,1.04
2022-12-01T13:45:17.912Z,0.94
2022-12-01T13:50:30.605Z,0.96
2022-12-01T13:55:25.988Z,0.85
2022-12-01T14:00:22.947Z,0.77
2022-12-01T14:05:30.745Z,0.74
2022-12-01T14:10:27.589Z,0.72
2022-12-01T14:15:26.865Z,0.63
2022-12-01T14:20:21.258Z,0.62
2022-12-01T14:25:23.330Z,0.68
2022-12-01T14:30:30.799Z,0.61
2022-12-01T14:35:13.119Z,0.62
2022-12-01T14:40:16.936Z,0.51
2022-12-01T14:45:16.402Z,0.54
2022-12-01T14:50:16.424Z,0.46
2022-12-01T14:55:15.735Z,0.32
2022-12-01T15:00:15.008Z,0.39
2022-12-01T15:05:13.518Z,0.44
2022-12-01T15:10:16.717Z,0.57
2022-12-01T15:15:17.821Z,0.46
2022-12-01T15:20:29.440Z,0.34
2022-12-01T15:25:14.571Z,0.25
2022-12-01T15:30:13.564Z,0.11
2022-12-01T15:35:17.739Z,0.03
2022-12-01T15:45:17.681Z,-0.22
2022-12-01T15:50:25.208Z,-0.34
2022-12-01T15:55:22.388Z,-0.40
2022-12-01T16:00:17.873Z,-0.47
2022-12-01T16:05:17.374Z,-0.43
2022-12-01T16:10:25.288Z,-0.49
2022-12-01T16:15:14.415Z,-0.46
2022-12-01T16:20:16.264Z,-0.50
2022-12-01T16:25:16.067Z,-0.53
2022-12-01T16:30:19.857Z,-0.53
2022-12-01T16:35:22.924Z,-0.55
2022-12-01T16:40:12.887Z,-0.58
2022-12-01T16:45:13.865Z,-0.58
2022-12-01T16:50:12.938Z,-0.55
2022-12-01T16:55:23.853Z,-0.48
2022-12-01T17:00:11.275Z,-0.59
2022-12-01T17:05:11.006Z,-0.68
2022-12-01T17:10:11.578Z,-0.75
2022-12-01T17:15:11.255Z,-0.72
2022-12-01T17:20:11.221Z,-0.83
2022-12-01T17:25:11.552Z,-0.80
2022-12-01T17:30:11.991Z,-0.73
2022-12-01T17:35:10.811Z,-0.82
2022-12-01T17:40:13.656Z,-0.99
2022-12-01T17:45:10.798Z,-0.95
2022-12-01T17:50:11.359Z,-1.01
2022-12-01T17:55:11.040Z,-1.04
2022-12-01T18:00:11.788Z,-1.05
2022-12-01T18:05:10.697Z,-1.16
2022-12-01T18:10:11.456Z,-1.14
2022-12-01T18:15:11.726Z,-1.19
2022-12-01T18:20:10.903Z,-1.30
2022-12-01T18:25:11.765Z,-1.22
2022-12-01T18:30:11.281Z,-1.22
2022-12-01T18:35:10.562Z,-1.35
2022-12-01T18:40:11.924Z,-1.44
2022-12-01T18:45:10.664Z,-1.45
2022-12-01T18:50:11.127Z,-1.46
2022-12-01T18:55:10.720Z,-1.46
2022-12-01T19:00:11.463Z,-1.44
2022-12-01T19:05:10.937Z,-1.45
2022-12-01T19:10:10.866Z,-1.43
2022-12-01T19:15:11.665Z,-1.50
2022-12-01T19:20:11.680Z,-1.49
2022-12-01T19:25:12.318Z,-1.44
2022-12-01T19:30:11.249Z,-1.47
2022-12-01T19:35:11.264Z,-1.47
2022-12-01T19:40:11.496Z,-1.45
2022-12-01T19:45:10.749Z,-1.34
2022-12-01T19:50:11.225Z,-1.44
2022-12-01T19:55:11.256Z,-1.45
2022-12-01T20:00:11.428Z,-1.43
2022-12-01T20:05:11.252Z,-1.41
2022-12-01T20:10:10.813Z,-1.43
2022-12-01T20:15:10.609Z,-1.41
2022-12-01T20:20:11.794Z,-1.34
2022-12-01T20:25:10.764Z,-1.38
2022-12-01T20:30:11.394Z,-1.44
2022-12-01T20:35:11.535Z,-1.39
2022-12-01T20:40:10.884Z,-1.31
2022-12-01T20:45:10.490Z,-1.30
2022-12-01T20:50:10.839Z,-1.23
2022-12-01T20:55:11.079Z,-1.11
2022-12-01T21:00:12.637Z,-1.10
2022-12-01T21:05:10.631Z,-1.13
2022-12-01T21:10:13.466Z,-1.07
2022-12-01T21:15:20.030Z,-1.12
2022-12-01T21:20:20.822Z,-1.05
2022-12-01T21:25:14.820Z,-1.03
2022-12-01T21:30:16.922Z,-1.13
2022-12-01T21:35:16.236Z,-1.14
2022-12-01T21:40:16.692Z,-1.18
2022-12-01T21:45:18.539Z,-1.10
2022-12-01T21:50:16.942Z,-1.16
2022-12-01T21:55:30.565Z,-1.07
2022-12-01T22:00:23.594Z,-1.19
2022-12-01T22:05:25.791Z,-1.11
2022-12-01T22:10:30.202Z,-1.31
2022-12-01T22:15:30.374Z,-1.35
2022-12-01T22:20:21.282Z,-1.40
2022-12-01T22:25:20.593Z,-1.50
2022-12-01T22:26:15.862Z,-1.50
2022-12-01T22:30:17.760Z,-1.52
2022-12-01T22:35:20.527Z,-1.52
2022-12-01T22:40:30.559Z,-1.57
2022-12-01T22:45:21.323Z,-1.58
2022-12-01T22:50:23.293Z,-1.56
2022-12-01T22:55:14.692Z,-1.58
2022-12-01T23:00:15.308Z,-1.61
2022-12-01T23:05:20.370Z,-1.63
2022-12-01T23:10:14.872Z,-1.67
2022-12-01T23:15:19.308Z,-1.62
2022-12-01T23:20:25.916Z,-1.57
2022-12-01T23:25:14.094Z,-1.55
2022-12-01T23:30:12.389Z,-1.66
2022-12-01T23:35:15.759Z,-1.59
2022-12-01T23:40:22.337Z,-1.68
2022-12-01T23:45:14.910Z,-1.69
2022-12-01T23:50:17.888Z,-1.71
2022-12-01T23:55:19.962Z,-1.77
